MSC weather

Falcon Field
Mesa, Arizona, United States

Public forecast

Using degrees Fahrenheit for public forecast. Weather courtesy of forecast.io.

Current aviation weather report (METAR) for Falcon Field

Retrieved 2019/12/12 04:54 UTC (52 minutes ago):

KFFZ 120454Z AUTO 04003KT 10SM CLR 12/07 A3014 RMK AO2 SLP195 T01170072

Closest aviation forecast (TAF) to Falcon Field

Closest forecast is Phoenix-Mesa-Gateway Airport, 9.9 nm (18.3 km) SSE. Retrieved 2019-12-12 00:22 UTC (5 hours ago):

TAF KIWA 112320Z 1200/1224 29004KT P6SM FEW250 FM120400 11004KT P6SM SCT200 FM121900 27005KT P6SM SCT250